River Falls, Alabama
Current Conditions -  °F | °C
As of 5:24 AM on Sunday 21 Dec 2014 (Local Time) from K79J Reporting Station
Overcast Overcast  
Wind Chill: 55°   Ceiling: 3000
Heat Index: 55°   Visibility: 8mi
Dew Point: 50°   Wind: 7mph
Humidity: 82%   Direction: 90°E
Pressure: 30.11"   Gusts: NA
Location:  31.35°N, 86.54°W
Report Text: K79J 211124Z AUTO 09006KT 8SM SCT009 OVC030 13/10 A3011 RMK AO2
Loading
Personal Weather Stations






























Interactive Weather Map New forecast layout! Learn more

10-Day Weather Forecast

Advertisements
Track Severe Weather on mobile